createdAt,value
2023-03-30T00:00:21.547Z,3.17
2023-03-30T00:02:51.135Z,3.35
2023-03-30T00:05:18.664Z,2.55
2023-03-30T00:07:47.066Z,2.72
2023-03-30T00:10:19.742Z,2.72
2023-03-30T00:12:50.570Z,3.05
2023-03-30T00:15:19.279Z,2.88
2023-03-30T00:17:46.113Z,2.38
2023-03-30T00:20:14.442Z,2.90
2023-03-30T00:22:43.248Z,2.33
2023-03-30T00:25:12.995Z,2.90
2023-03-30T00:27:40.843Z,2.85
2023-03-30T00:30:11.236Z,2.65
2023-03-30T00:32:37.984Z,2.80
2023-03-30T00:35:06.125Z,2.90
2023-03-30T00:37:33.552Z,2.50
2023-03-30T00:40:00.147Z,2.95
2023-03-30T00:42:27.114Z,3.25
2023-03-30T00:45:20.274Z,3.20
2023-03-30T00:48:04.598Z,3.10
2023-03-30T00:50:36.964Z,2.95
2023-03-30T00:53:10.785Z,3.22
2023-03-30T00:55:41.867Z,2.65
2023-03-30T00:58:10.233Z,2.70
2023-03-30T01:00:40.095Z,2.58
2023-03-30T01:03:15.294Z,2.50
2023-03-30T01:05:43.247Z,3.00
2023-03-30T01:08:13.914Z,3.25
2023-03-30T01:10:41.421Z,2.30
2023-03-30T01:13:07.842Z,2.90
2023-03-30T01:15:39.400Z,3.08
2023-03-30T01:18:27.287Z,2.70
2023-03-30T01:21:15.947Z,2.85
2023-03-30T01:24:20.109Z,2.60
2023-03-30T01:26:51.651Z,2.58
2023-03-30T01:29:46.809Z,2.30
2023-03-30T01:32:13.066Z,2.83
2023-03-30T01:35:14.832Z,3.17
2023-03-30T01:37:59.734Z,2.38
2023-03-30T01:40:37.161Z,3.17
2023-03-30T01:43:17.511Z,2.95
2023-03-30T01:45:54.778Z,3.10
2023-03-30T01:48:35.752Z,3.10
2023-03-30T01:51:13.394Z,2.97
2023-03-30T01:54:14.395Z,3.10
2023-03-30T01:56:49.902Z,3.08
2023-03-30T01:59:31.320Z,3.10
2023-03-30T02:02:04.273Z,3.00
2023-03-30T02:04:36.638Z,2.67
2023-03-30T02:07:09.283Z,3.17
2023-03-30T02:09:42.116Z,3.17
2023-03-30T02:12:11.066Z,3.20
2023-03-30T02:14:41.626Z,3.60
2023-03-30T02:17:18.461Z,3.17
2023-03-30T02:19:49.286Z,3.22
2023-03-30T02:22:20.664Z,2.95
2023-03-30T02:24:49.374Z,2.50
2023-03-30T02:27:18.708Z,2.83
2023-03-30T02:29:46.047Z,3.13
2023-03-30T02:32:22.834Z,3.10
2023-03-30T02:34:51.965Z,3.05
2023-03-30T02:37:21.440Z,3.13
2023-03-30T02:40:23.929Z,3.35
2023-03-30T02:46:06.263Z,3.45
2023-03-30T02:49:03.873Z,3.10
2023-03-30T02:51:50.894Z,3.40
2023-03-30T02:54:38.520Z,3.30
2023-03-30T02:57:16.205Z,2.97
2023-03-30T03:00:20.548Z,3.10
2023-03-30T03:02:52.451Z,3.55
2023-03-30T03:07:48.857Z,2.90
2023-03-30T03:10:15.291Z,3.03
2023-03-30T03:12:46.605Z,3.40
2023-03-30T03:15:13.833Z,3.15
2023-03-30T03:17:40.202Z,3.10
2023-03-30T03:20:12.644Z,3.58
2023-03-30T03:22:39.190Z,3.55
2023-03-30T03:25:05.878Z,3.13
2023-03-30T03:27:33.510Z,3.70
2023-03-30T03:29:59.854Z,2.88
2023-03-30T03:32:26.312Z,4.00
2023-03-30T03:34:52.698Z,3.47
2023-03-30T03:37:19.354Z,3.25
2023-03-30T03:39:45.847Z,2.70
2023-03-30T03:42:12.905Z,3.35
2023-03-30T03:44:40.452Z,3.00
2023-03-30T03:47:07.285Z,2.60
2023-03-30T03:49:36.216Z,3.17
2023-03-30T03:52:02.701Z,3.67
2023-03-30T03:54:30.202Z,3.55
2023-03-30T03:57:00.954Z,3.25
2023-03-30T03:59:31.570Z,3.17
2023-03-30T04:01:57.997Z,3.15
2023-03-30T04:04:27.386Z,3.72
2023-03-30T04:06:53.973Z,2.97
2023-03-30T04:09:21.510Z,3.97
2023-03-30T04:11:47.891Z,3.08
2023-03-30T04:14:14.204Z,2.88
2023-03-30T04:16:40.987Z,2.92
2023-03-30T04:19:09.243Z,3.20
2023-03-30T04:21:35.719Z,3.22
2023-03-30T04:24:02.930Z,3.25
2023-03-30T04:26:30.359Z,2.95
2023-03-30T04:28:56.980Z,3.33
2023-03-30T04:31:26.530Z,4.03
2023-03-30T04:33:53.466Z,3.42
2023-03-30T04:36:21.592Z,3.17
2023-03-30T04:38:59.119Z,3.20
2023-03-30T04:41:33.600Z,2.80
2023-03-30T04:44:04.849Z,3.00
2023-03-30T04:46:31.430Z,2.90
2023-03-30T04:49:00.753Z,2.85
2023-03-30T04:51:31.062Z,2.83
2023-03-30T04:53:57.622Z,3.17
2023-03-30T04:56:25.420Z,2.92
2023-03-30T04:58:51.997Z,3.28
2023-03-30T05:01:20.195Z,2.45
2023-03-30T05:03:46.638Z,2.58
2023-03-30T05:06:13.034Z,2.50
2023-03-30T05:08:41.744Z,3.28
2023-03-30T05:11:08.326Z,3.03
2023-03-30T05:13:34.698Z,3.35
2023-03-30T05:16:01.526Z,3.00
2023-03-30T05:18:27.892Z,2.92
2023-03-30T05:20:58.691Z,2.90
2023-03-30T05:23:25.923Z,2.83
2023-03-30T05:25:53.453Z,2.72
2023-03-30T05:28:20.125Z,2.90
2023-03-30T05:30:47.357Z,3.20
2023-03-30T05:33:13.824Z,3.13
2023-03-30T05:35:40.497Z,3.00
2023-03-30T05:38:07.649Z,3.22
2023-03-30T05:40:34.056Z,3.22
2023-03-30T05:43:00.992Z,3.92
2023-03-30T05:45:28.370Z,3.45
2023-03-30T05:47:57.132Z,2.80
2023-03-30T05:50:26.542Z,3.70
2023-03-30T05:52:53.767Z,3.92
2023-03-30T05:55:21.400Z,4.65
2023-03-30T05:57:47.894Z,5.32
2023-03-30T06:00:15.986Z,3.17
2023-03-30T06:02:42.398Z,3.83
2023-03-30T06:05:09.670Z,3.15
2023-03-30T06:07:37.463Z,4.22
2023-03-30T06:10:06.043Z,3.38
2023-03-30T06:12:32.605Z,3.63
2023-03-30T06:15:02.178Z,2.90
2023-03-30T06:17:29.650Z,3.05
2023-03-30T06:19:56.411Z,3.38
2023-03-30T06:22:24.303Z,3.60
2023-03-30T06:24:50.866Z,2.67
2023-03-30T06:27:17.532Z,2.60
2023-03-30T06:29:43.889Z,2.08
2023-03-30T06:32:10.267Z,2.95
2023-03-30T06:34:37.156Z,3.35
2023-03-30T06:37:03.520Z,3.75
2023-03-30T06:39:30.348Z,3.78
2023-03-30T06:41:57.765Z,2.88
2023-03-30T06:44:24.205Z,2.97
2023-03-30T06:46:50.536Z,2.70
2023-03-30T06:49:16.871Z,2.85
2023-03-30T06:51:43.297Z,3.50
2023-03-30T06:54:09.716Z,3.03
2023-03-30T06:56:36.075Z,2.90
2023-03-30T06:59:02.919Z,2.75
2023-03-30T07:01:29.295Z,2.90
2023-03-30T07:03:56.301Z,2.85
2023-03-30T07:06:22.798Z,3.08
2023-03-30T07:08:49.538Z,3.03
2023-03-30T07:11:15.966Z,3.55
2023-03-30T07:13:42.454Z,4.40
2023-03-30T07:16:09.089Z,4.18
2023-03-30T07:18:36.756Z,4.97
2023-03-30T07:21:04.727Z,7.97
2023-03-30T07:23:31.552Z,12.30
2023-03-30T07:25:57.972Z,17.13
2023-03-30T07:28:24.972Z,23.30
2023-03-30T07:30:51.603Z,26.00
2023-03-30T07:33:18.682Z,33.45
2023-03-30T07:35:46.836Z,37.85
2023-03-30T07:38:14.527Z,40.55
2023-03-30T07:40:41.194Z,47.05
2023-03-30T07:43:07.763Z,52.60
2023-03-30T07:45:34.324Z,59.45
2023-03-30T07:48:01.023Z,63.65
2023-03-30T07:50:27.985Z,68.85
2023-03-30T07:52:54.326Z,75.65
2023-03-30T07:55:21.069Z,83.65
2023-03-30T07:57:47.566Z,89.22
2023-03-30T08:00:14.606Z,95.18
2023-03-30T08:02:42.291Z,102.93
2023-03-30T08:05:09.602Z,109.30
2023-03-30T08:07:36.625Z,113.88
2023-03-30T08:10:03.214Z,120.10
2023-03-30T08:12:29.548Z,127.88
2023-03-30T08:14:56.155Z,134.80
2023-03-30T08:17:22.571Z,142.50
2023-03-30T08:19:48.921Z,147.15
2023-03-30T08:22:15.358Z,155.75
2023-03-30T08:24:41.975Z,166.07
2023-03-30T08:27:08.366Z,175.05
2023-03-30T08:29:34.787Z,188.27
2023-03-30T11:36:27.667Z,1.10
2023-03-30T11:39:03.416Z,1.33
2023-03-30T11:41:44.612Z,1.10
2023-03-30T11:44:12.107Z,1.35
2023-03-30T11:46:45.844Z,1.52
2023-03-30T11:49:30.849Z,1.20
2023-03-30T11:52:09.034Z,1.23
2023-03-30T11:55:03.930Z,0.88
2023-03-30T11:57:44.829Z,0.93
2023-03-30T12:00:11.138Z,0.90
2023-03-30T12:02:55.990Z,0.85
2023-03-30T12:05:51.961Z,0.70
2023-03-30T12:08:37.136Z,0.70
2023-03-30T12:11:23.666Z,0.73
2023-03-30T12:13:52.014Z,0.70
2023-03-30T12:16:41.504Z,0.70
2023-03-30T12:19:49.169Z,0.80
2023-03-30T12:22:39.269Z,0.70
2023-03-30T12:26:02.985Z,0.77
2023-03-30T12:32:04.010Z,0.80
2023-03-30T12:34:36.808Z,0.77
2023-03-30T12:37:13.043Z,0.75
2023-03-30T12:39:49.516Z,0.82
2023-03-30T12:42:27.861Z,0.73
2023-03-30T12:45:21.020Z,0.65
2023-03-30T12:47:59.169Z,0.70
2023-03-30T12:50:37.725Z,0.80
2023-03-30T12:53:17.203Z,1.00
2023-03-30T12:55:57.462Z,0.90
2023-03-30T12:58:45.665Z,0.90
2023-03-30T13:01:17.973Z,0.98
2023-03-30T13:04:07.629Z,1.20
2023-03-30T13:06:42.002Z,1.10
2023-03-30T13:09:08.678Z,1.10
2023-03-30T13:11:45.275Z,1.05
2023-03-30T13:14:44.939Z,1.17
2023-03-30T13:17:15.893Z,0.80
2023-03-30T13:19:48.457Z,1.00
2023-03-30T13:22:15.647Z,1.10
2023-03-30T13:24:42.075Z,0.98
2023-03-30T13:27:14.432Z,1.27
2023-03-30T13:30:02.993Z,1.40
2023-03-30T13:33:12.145Z,1.33
2023-03-30T13:35:48.897Z,1.20
2023-03-30T13:38:42.554Z,1.15
2023-03-30T13:41:35.241Z,1.05
2023-03-30T13:44:43.758Z,1.20
2023-03-30T13:47:31.844Z,1.10
2023-03-30T13:50:03.387Z,1.20
2023-03-30T13:52:38.560Z,1.40
2023-03-30T13:55:14.656Z,0.90
2023-03-30T13:57:42.213Z,1.20
2023-03-30T14:00:28.531Z,1.10
2023-03-30T14:02:55.533Z,1.40
2023-03-30T14:05:26.549Z,1.10
2023-03-30T14:07:58.506Z,0.90
2023-03-30T14:10:26.003Z,0.90
2023-03-30T14:12:55.200Z,0.90
2023-03-30T14:15:34.818Z,1.30
2023-03-30T14:18:02.541Z,0.90
2023-03-30T14:20:55.767Z,1.33
2023-03-30T14:23:34.911Z,1.10
2023-03-30T14:26:12.216Z,0.98
2023-03-30T14:28:41.733Z,0.90
2023-03-30T14:31:16.904Z,1.08
2023-03-30T14:33:45.813Z,1.10
2023-03-30T14:36:16.481Z,1.00
2023-03-30T14:38:47.127Z,1.00
2023-03-30T14:41:18.305Z,1.00
2023-03-30T14:43:54.592Z,1.10
2023-03-30T14:46:25.126Z,1.20
2023-03-30T14:48:52.879Z,0.93
2023-03-30T14:51:21.040Z,1.10
2023-03-30T14:53:48.038Z,1.20
2023-03-30T14:56:17.372Z,1.15
2023-03-30T14:58:45.132Z,1.00
2023-03-30T15:01:16.252Z,1.10
2023-03-30T15:03:43.438Z,1.13
2023-03-30T15:06:16.359Z,1.10
2023-03-30T15:08:46.419Z,1.15
2023-03-30T15:11:19.547Z,1.10
2023-03-30T15:13:56.091Z,1.10
2023-03-30T15:16:27.204Z,1.20
2023-03-30T15:19:00.910Z,1.13
2023-03-30T15:21:32.505Z,1.20
2023-03-30T15:24:00.552Z,1.00
2023-03-30T15:26:28.679Z,1.30
2023-03-30T15:28:59.996Z,1.20
2023-03-30T15:31:28.699Z,1.20
2023-03-30T15:34:00.571Z,1.60
2023-03-30T15:36:39.800Z,1.35
2023-03-30T15:39:24.963Z,1.13
2023-03-30T15:41:57.875Z,1.27
2023-03-30T15:44:25.439Z,1.10
2023-03-30T15:46:57.732Z,1.30
2023-03-30T15:49:48.834Z,1.38
2023-03-30T15:52:36.167Z,1.02
2023-03-30T15:55:27.937Z,1.20
2023-03-30T15:57:55.242Z,1.25
2023-03-30T16:00:31.533Z,1.20
2023-03-30T16:03:04.661Z,1.40
2023-03-30T16:05:33.975Z,1.50
2023-03-30T16:08:00.725Z,1.10
2023-03-30T16:10:32.212Z,1.15
2023-03-30T16:13:00.807Z,1.27
2023-03-30T16:15:31.574Z,1.10
2023-03-30T16:17:58.314Z,1.17
2023-03-30T16:20:28.129Z,1.30
2023-03-30T16:22:54.919Z,1.10
2023-03-30T16:25:31.246Z,1.13
2023-03-30T16:28:16.785Z,1.30
2023-03-30T16:30:46.442Z,1.40
2023-03-30T16:33:13.403Z,1.10
2023-03-30T16:35:40.464Z,1.20
2023-03-30T16:38:07.146Z,1.73
2023-03-30T16:40:41.551Z,1.85
2023-03-30T16:43:09.432Z,2.40
2023-03-30T16:45:36.711Z,2.40
2023-03-30T16:48:04.888Z,1.67
2023-03-30T16:50:40.154Z,1.50
2023-03-30T16:53:07.908Z,2.63
2023-03-30T16:55:34.589Z,2.20
2023-03-30T16:58:01.349Z,2.00
2023-03-30T17:00:33.244Z,1.65
2023-03-30T17:02:59.973Z,1.35
2023-03-30T17:05:26.954Z,1.20
2023-03-30T17:07:54.839Z,1.20
2023-03-30T17:10:32.250Z,1.27
2023-03-30T17:12:59.730Z,1.35
2023-03-30T17:15:27.192Z,1.40
2023-03-30T17:17:55.549Z,1.50
2023-03-30T17:20:41.683Z,1.60
2023-03-30T17:23:12.685Z,1.30
2023-03-30T17:25:40.215Z,1.33
